createdAt,value
2019-05-29T00:00:51.766Z,10.70
2019-05-29T00:01:51.433Z,11.70
2019-05-29T00:02:51.407Z,10.80
2019-05-29T00:03:51.468Z,11.00
2019-05-29T00:04:51.391Z,10.70
2019-05-29T00:05:51.632Z,11.40
2019-05-29T00:06:51.381Z,11.40
2019-05-29T00:07:51.364Z,10.00
2019-05-29T00:08:51.649Z,11.70
2019-05-29T00:09:51.401Z,10.20
2019-05-29T00:10:51.324Z,11.00
2019-05-29T00:11:51.614Z,10.60
2019-05-29T00:12:51.309Z,10.90
2019-05-29T00:13:51.289Z,11.40
2019-05-29T00:15:04.369Z,11.20
2019-05-29T00:16:51.284Z,10.60
2019-05-29T00:17:51.310Z,10.80
2019-05-29T00:18:51.243Z,11.00
2019-05-29T00:19:51.229Z,10.90
2019-05-29T00:20:51.220Z,10.60
2019-05-29T00:21:51.203Z,10.90
2019-05-29T00:22:51.549Z,12.10
2019-05-29T00:23:51.492Z,10.50
2019-05-29T00:24:51.180Z,11.20
2019-05-29T00:25:51.166Z,11.20
2019-05-29T00:26:51.443Z,11.90
2019-05-29T00:27:51.160Z,11.20
2019-05-29T00:28:51.132Z,10.70
2019-05-29T00:29:51.522Z,11.70
2019-05-29T00:30:51.114Z,11.60
2019-05-29T00:31:51.136Z,10.90
2019-05-29T00:33:51.095Z,11.70
2019-05-29T00:34:51.073Z,11.40
2019-05-29T00:35:51.346Z,11.20
2019-05-29T00:36:51.050Z,12.10
2019-05-29T00:37:51.080Z,11.00
2019-05-29T00:38:51.324Z,12.90
2019-05-29T00:39:51.020Z,12.20
2019-05-29T00:40:51.002Z,10.70
2019-05-29T00:41:51.312Z,11.30
2019-05-29T00:42:51.034Z,11.40
2019-05-29T00:43:50.986Z,12.10
2019-05-29T00:44:51.246Z,11.60
2019-05-29T00:47:07.360Z,11.60
2019-05-29T00:48:06.063Z,12.10
2019-05-29T00:49:06.346Z,12.40
2019-05-29T00:50:06.332Z,11.50
2019-05-29T00:51:06.029Z,12.60
2019-05-29T00:52:06.022Z,12.10
2019-05-29T00:53:06.241Z,11.50
2019-05-29T00:54:06.041Z,12.50
2019-05-29T00:55:05.989Z,11.10
2019-05-29T00:56:06.226Z,11.90
2019-05-29T00:57:05.963Z,11.20
2019-05-29T00:58:05.952Z,12.30
2019-05-29T00:59:06.165Z,11.20
2019-05-29T01:00:05.945Z,12.30
2019-05-29T01:01:05.923Z,12.20
2019-05-29T01:02:06.233Z,11.60
2019-05-29T01:03:05.907Z,11.70
2019-05-29T01:04:05.893Z,11.30
2019-05-29T01:05:06.253Z,11.70
2019-05-29T01:06:05.871Z,11.80
2019-05-29T01:07:05.854Z,11.40
2019-05-29T01:08:06.263Z,11.30
2019-05-29T01:09:05.840Z,11.70
2019-05-29T01:10:05.863Z,11.90
2019-05-29T01:11:06.423Z,11.70
2019-05-29T01:12:05.806Z,11.80
2019-05-29T01:13:06.102Z,11.20
2019-05-29T01:14:05.787Z,12.10
2019-05-29T01:15:05.769Z,11.30
2019-05-29T01:16:06.113Z,12.20
2019-05-29T01:17:19.736Z,12.00
2019-05-29T01:18:06.060Z,11.70
2019-05-29T01:19:05.735Z,12.00
2019-05-29T01:20:05.720Z,11.80
2019-05-29T01:21:06.052Z,10.90
2019-05-29T01:22:05.707Z,11.10
2019-05-29T01:23:05.690Z,11.90
2019-05-29T01:24:05.996Z,10.60
2019-05-29T01:25:05.668Z,10.80
2019-05-29T01:26:05.689Z,10.90
2019-05-29T01:27:05.977Z,11.60
2019-05-29T01:28:05.626Z,12.00
2019-05-29T01:29:05.621Z,12.00
2019-05-29T01:30:05.974Z,12.00
2019-05-29T01:31:05.596Z,12.20
2019-05-29T01:32:05.601Z,13.20
2019-05-29T01:33:05.859Z,11.40
2019-05-29T01:34:05.573Z,12.40
2019-05-29T01:35:05.560Z,12.30
2019-05-29T01:36:05.886Z,12.10
2019-05-29T01:37:05.544Z,12.60
2019-05-29T01:38:05.520Z,11.90
2019-05-29T01:39:05.813Z,13.00
2019-05-29T01:40:19.347Z,13.10
2019-05-29T01:41:05.493Z,12.90
2019-05-29T01:42:06.226Z,13.40
2019-05-29T01:43:05.481Z,13.00
2019-05-29T01:44:06.246Z,14.80
2019-05-29T01:45:08.096Z,15.50
2019-05-29T01:46:05.435Z,15.40
2019-05-29T01:47:05.424Z,16.00
2019-05-29T01:48:17.381Z,18.50
2019-05-29T01:49:05.730Z,19.20
2019-05-29T01:50:05.391Z,19.40
2019-05-29T01:51:05.380Z,23.50
2019-05-29T01:52:05.376Z,24.70
2019-05-29T01:53:05.367Z,23.50
2019-05-29T01:54:05.679Z,22.90
2019-05-29T01:55:05.336Z,22.60
2019-05-29T01:56:05.327Z,22.20
2019-05-29T01:57:05.622Z,22.70
2019-05-29T01:58:05.314Z,21.80
2019-05-29T01:59:05.305Z,24.60
2019-05-29T02:00:05.659Z,22.10
2019-05-29T02:01:05.273Z,21.20
2019-05-29T02:02:05.261Z,19.10
2019-05-29T02:03:05.598Z,19.60
2019-05-29T02:04:05.246Z,18.50
2019-05-29T02:05:05.228Z,18.00
2019-05-29T02:06:05.518Z,18.10
2019-05-29T02:07:05.209Z,17.60
2019-05-29T02:08:05.208Z,17.70
2019-05-29T02:09:05.198Z,17.50
2019-05-29T02:10:05.171Z,17.40
2019-05-29T02:11:05.458Z,16.80
2019-05-29T02:12:05.155Z,16.80
2019-05-29T02:13:05.147Z,16.50
2019-05-29T02:14:05.455Z,17.00
2019-05-29T02:15:05.127Z,18.50
2019-05-29T02:16:05.109Z,17.70
2019-05-29T02:17:05.479Z,18.90
2019-05-29T02:18:05.096Z,18.20
2019-05-29T02:19:17.837Z,18.80
2019-05-29T02:20:05.396Z,18.00
2019-05-29T02:21:05.056Z,18.20
2019-05-29T02:22:05.045Z,16.20
2019-05-29T02:23:05.334Z,17.20
2019-05-29T02:24:05.040Z,16.50
2019-05-29T02:25:05.026Z,16.30
2019-05-29T02:26:05.331Z,17.10
2019-05-29T02:27:04.993Z,15.60
2019-05-29T02:28:04.980Z,16.80
2019-05-29T02:29:05.302Z,16.60
2019-05-29T02:30:05.004Z,16.20
2019-05-29T02:31:04.954Z,17.00
2019-05-29T02:32:05.290Z,15.70
2019-05-29T02:33:04.931Z,16.40
2019-05-29T02:34:07.360Z,17.30
2019-05-29T02:35:05.275Z,16.60
2019-05-29T02:36:04.911Z,16.10
2019-05-29T02:37:04.890Z,17.80
2019-05-29T02:38:05.196Z,16.80
2019-05-29T02:39:04.858Z,16.50
2019-05-29T02:40:04.932Z,17.40
2019-05-29T02:41:05.139Z,17.40
2019-05-29T02:42:04.834Z,17.70
2019-05-29T02:43:04.818Z,16.70
2019-05-29T02:44:05.571Z,16.80
2019-05-29T02:45:04.803Z,16.00
2019-05-29T02:46:05.067Z,17.00
2019-05-29T02:47:04.779Z,17.20
2019-05-29T02:48:04.771Z,16.30
2019-05-29T02:49:05.055Z,16.30
2019-05-29T02:51:20.019Z,17.50
2019-05-29T02:52:20.149Z,17.50
2019-05-29T02:53:20.038Z,18.10
2019-05-29T02:54:20.316Z,15.10
2019-05-29T02:55:20.637Z,13.80
2019-05-29T02:56:20.626Z,13.20
2019-05-29T02:57:20.714Z,13.60
2019-05-29T02:58:21.527Z,13.20
2019-05-29T02:59:21.007Z,13.30
2019-05-29T03:00:20.924Z,12.60
2019-05-29T03:01:21.381Z,14.10
2019-05-29T03:02:21.387Z,14.00
2019-05-29T03:03:19.607Z,13.90
2019-05-29T03:04:21.435Z,13.80
2019-05-29T03:05:19.582Z,14.90
2019-05-29T03:06:19.570Z,14.40
2019-05-29T03:07:19.877Z,15.70
2019-05-29T03:08:19.564Z,13.70
2019-05-29T03:09:19.544Z,15.00
2019-05-29T03:10:19.806Z,14.70
2019-05-29T03:11:19.520Z,15.10
2019-05-29T03:12:19.520Z,16.20
2019-05-29T03:13:19.844Z,14.50
2019-05-29T03:14:19.495Z,15.50
2019-05-29T03:15:19.474Z,14.70
2019-05-29T03:16:19.804Z,16.90
2019-05-29T03:17:19.472Z,16.80
2019-05-29T03:18:19.448Z,16.90
2019-05-29T03:19:19.767Z,17.50
2019-05-29T03:20:19.429Z,15.80
2019-05-29T03:21:32.505Z,15.90
2019-05-29T03:22:19.711Z,16.70
2019-05-29T03:23:19.830Z,16.20
2019-05-29T03:24:19.383Z,16.80
2019-05-29T03:25:19.367Z,16.60
2019-05-29T03:26:23.726Z,15.90
2019-05-29T03:27:19.347Z,16.50
2019-05-29T03:28:19.346Z,17.10
2019-05-29T03:29:19.623Z,17.50
2019-05-29T03:30:19.328Z,17.10
2019-05-29T03:31:19.320Z,19.30
2019-05-29T03:32:19.610Z,19.70
2019-05-29T03:33:19.336Z,20.50
2019-05-29T03:34:19.282Z,20.90
2019-05-29T03:35:19.562Z,20.40
2019-05-29T03:36:19.263Z,19.80
2019-05-29T03:37:19.254Z,20.60
2019-05-29T03:38:19.567Z,19.70
2019-05-29T03:39:19.241Z,20.40
2019-05-29T03:40:19.205Z,19.60
2019-05-29T03:41:19.531Z,17.50
2019-05-29T03:42:19.291Z,18.40
2019-05-29T03:43:19.181Z,18.00
2019-05-29T03:44:19.180Z,20.90
2019-05-29T03:45:19.163Z,19.70
2019-05-29T03:46:31.721Z,20.10
2019-05-29T03:47:20.131Z,20.20
2019-05-29T03:48:19.192Z,19.00
2019-05-29T03:49:19.140Z,19.00
2019-05-29T03:50:19.109Z,18.40
2019-05-29T03:51:19.126Z,19.60
2019-05-29T03:52:32.712Z,20.50
2019-05-29T03:53:19.075Z,19.90
2019-05-29T03:54:19.406Z,21.50
2019-05-29T03:55:19.388Z,19.30
2019-05-29T03:56:19.044Z,20.20
2019-05-29T03:57:19.104Z,19.50
2019-05-29T03:58:19.343Z,20.20
2019-05-29T03:59:19.004Z,20.50
2019-05-29T04:00:18.999Z,21.40
2019-05-29T04:01:19.344Z,21.10
2019-05-29T04:02:18.976Z,19.70
2019-05-29T04:03:18.973Z,21.20
2019-05-29T04:04:19.282Z,22.20
2019-05-29T04:05:18.949Z,21.40
2019-05-29T04:06:18.927Z,20.80
2019-05-29T04:07:19.165Z,20.60
2019-05-29T04:08:18.908Z,22.60
2019-05-29T04:09:18.899Z,21.90
2019-05-29T04:10:19.243Z,24.40
2019-05-29T04:11:18.882Z,22.80
2019-05-29T04:12:19.354Z,23.70
2019-05-29T04:13:18.852Z,24.30
2019-05-29T04:14:18.848Z,23.20
2019-05-29T04:15:19.145Z,22.90
2019-05-29T04:16:18.823Z,22.60
2019-05-29T04:17:18.810Z,24.10
2019-05-29T04:18:19.822Z,25.70
2019-05-29T04:19:18.792Z,24.80
2019-05-29T04:20:18.778Z,23.10
2019-05-29T04:21:19.051Z,25.60
2019-05-29T04:22:18.777Z,16.90
2019-05-29T04:23:32.114Z,17.60
2019-05-29T04:24:19.018Z,19.40
2019-05-29T04:25:18.733Z,21.70
2019-05-29T04:26:18.850Z,21.70
2019-05-29T04:27:18.709Z,24.30
2019-05-29T04:28:18.885Z,25.20
2019-05-29T04:29:18.705Z,22.30
2019-05-29T04:30:18.683Z,22.30
2019-05-29T04:31:18.666Z,22.50
2019-05-29T04:32:18.656Z,22.50
2019-05-29T04:33:18.965Z,23.10
2019-05-29T04:34:18.646Z,22.30
2019-05-29T04:35:18.620Z,25.00
2019-05-29T04:36:18.935Z,24.90
2019-05-29T04:37:18.600Z,26.00
2019-05-29T04:38:18.589Z,24.20
2019-05-29T04:39:18.944Z,23.20
2019-05-29T04:40:18.574Z,25.10
2019-05-29T04:41:18.553Z,25.70
2019-05-29T04:42:18.916Z,24.70
2019-05-29T04:43:18.538Z,26.70
2019-05-29T04:44:18.571Z,24.10
2019-05-29T04:45:18.827Z,24.40
2019-05-29T04:46:18.504Z,27.40
2019-05-29T04:47:18.490Z,27.00
2019-05-29T04:48:18.824Z,27.70
2019-05-29T04:49:20.356Z,28.20
2019-05-29T04:50:18.468Z,28.70
2019-05-29T04:51:18.743Z,27.90
2019-05-29T04:52:18.436Z,26.40
2019-05-29T04:53:18.428Z,27.70
2019-05-29T04:54:31.214Z,28.10
2019-05-29T04:55:18.718Z,28.20
2019-05-29T04:56:18.401Z,26.70
2019-05-29T04:57:18.480Z,27.60
2019-05-29T04:58:18.378Z,26.60
2019-05-29T04:59:18.365Z,23.50
2019-05-29T05:00:18.669Z,25.90
2019-05-29T05:01:18.345Z,23.90
2019-05-29T05:02:18.337Z,23.90
2019-05-29T05:03:18.660Z,23.30
2019-05-29T05:04:18.312Z,23.90
2019-05-29T05:05:19.600Z,23.90
2019-05-29T05:06:18.691Z,25.80
2019-05-29T05:07:18.285Z,28.00
2019-05-29T05:08:18.265Z,26.60
2019-05-29T05:09:18.257Z,24.30
2019-05-29T05:10:18.583Z,24.00
2019-05-29T05:12:18.223Z,27.20
2019-05-29T05:13:18.525Z,26.00
2019-05-29T05:14:18.206Z,27.60
2019-05-29T05:15:18.217Z,26.50
2019-05-29T05:16:18.468Z,26.80
2019-05-29T05:17:26.129Z,26.00
2019-05-29T05:18:19.158Z,25.70
2019-05-29T05:19:18.504Z,25.80
2019-05-29T05:20:18.145Z,24.50
2019-05-29T05:21:18.138Z,25.10
2019-05-29T05:22:18.413Z,25.00
2019-05-29T05:23:18.130Z,25.00
2019-05-29T05:24:18.099Z,25.10
2019-05-29T05:25:32.071Z,26.60
2019-05-29T05:27:18.065Z,23.90
2019-05-29T05:28:18.381Z,24.50
2019-05-29T05:29:18.046Z,26.10
2019-05-29T05:30:18.028Z,25.20
2019-05-29T05:31:18.320Z,24.30
2019-05-29T05:32:18.036Z,25.60
2019-05-29T05:33:17.997Z,24.30
2019-05-29T05:34:18.318Z,25.30
2019-05-29T05:35:17.983Z,25.50
2019-05-29T05:36:17.968Z,25.10
2019-05-29T05:37:18.289Z,27.40
2019-05-29T05:38:17.957Z,27.50
2019-05-29T05:39:17.939Z,27.90
2019-05-29T05:40:18.226Z,30.00
2019-05-29T05:41:17.919Z,29.10
2019-05-29T05:42:17.915Z,28.80
2019-05-29T05:43:23.994Z,27.80
2019-05-29T05:44:17.887Z,30.50
2019-05-29T05:45:17.869Z,29.30
2019-05-29T05:46:18.144Z,30.40
2019-05-29T05:47:17.907Z,30.20
2019-05-29T05:48:18.004Z,30.90
2019-05-29T05:49:18.130Z,31.00
2019-05-29T05:50:17.819Z,33.90
2019-05-29T05:51:17.805Z,32.50
2019-05-29T05:52:18.151Z,32.80
2019-05-29T05:53:17.789Z,34.70
2019-05-29T05:54:17.772Z,34.60
2019-05-29T05:55:18.031Z,35.60
2019-05-29T05:56:29.583Z,35.10
2019-05-29T05:57:18.033Z,34.60
2019-05-29T05:58:17.732Z,34.40
2019-05-29T05:59:17.741Z,36.20
2019-05-29T06:00:17.713Z,32.90
2019-05-29T06:01:17.699Z,32.10
2019-05-29T06:02:18.126Z,33.90
2019-05-29T06:03:17.682Z,32.00
2019-05-29T06:04:17.661Z,31.60
2019-05-29T06:05:17.929Z,32.10
2019-05-29T06:06:17.650Z,32.70
2019-05-29T06:07:17.639Z,29.90
2019-05-29T06:08:18.045Z,30.70
2019-05-29T06:09:17.618Z,30.40
2019-05-29T06:10:17.601Z,32.30
2019-05-29T06:11:17.909Z,30.90
2019-05-29T06:12:17.579Z,31.30
2019-05-29T06:13:17.578Z,32.70
2019-05-29T06:14:17.852Z,28.90
2019-05-29T06:15:17.552Z,30.40
2019-05-29T06:16:17.543Z,30.10
2019-05-29T06:17:17.855Z,29.40
2019-05-29T06:18:21.433Z,28.00
2019-05-29T06:19:17.505Z,28.50
2019-05-29T06:20:17.781Z,29.30
2019-05-29T06:21:17.501Z,27.60
2019-05-29T06:22:17.474Z,27.50
2019-05-29T06:23:17.766Z,28.00
2019-05-29T06:24:17.466Z,25.90
2019-05-29T06:25:17.549Z,24.40
2019-05-29T06:26:17.784Z,25.60
2019-05-29T06:27:30.315Z,23.60
2019-05-29T06:28:17.761Z,23.70
2019-05-29T06:29:17.407Z,22.90
2019-05-29T06:30:17.448Z,24.30
2019-05-29T06:31:17.379Z,25.00
2019-05-29T06:32:17.372Z,23.60
2019-05-29T06:33:17.630Z,25.70
2019-05-29T06:34:17.359Z,25.40
2019-05-29T06:35:17.335Z,23.80
2019-05-29T06:36:17.663Z,24.00
2019-05-29T06:37:17.318Z,24.30
2019-05-29T06:38:17.300Z,23.40
2019-05-29T06:39:17.588Z,23.50
2019-05-29T06:40:17.316Z,23.40
2019-05-29T06:41:17.277Z,22.90
2019-05-29T06:42:17.609Z,22.90
2019-05-29T06:43:17.250Z,22.40
2019-05-29T06:44:17.266Z,21.40
2019-05-29T06:45:17.244Z,21.20
2019-05-29T06:46:17.215Z,22.30
2019-05-29T06:47:17.525Z,23.60
2019-05-29T06:48:17.206Z,23.80
2019-05-29T06:49:17.186Z,23.90
2019-05-29T06:50:17.459Z,22.00
2019-05-29T06:51:17.181Z,24.40
2019-05-29T06:52:17.189Z,26.20
2019-05-29T06:53:17.438Z,21.70
2019-05-29T06:54:17.131Z,23.00
2019-05-29T06:55:17.144Z,22.50
2019-05-29T06:56:17.677Z,21.70
2019-05-29T06:57:17.101Z,20.30
2019-05-29T06:58:29.363Z,20.70
2019-05-29T06:59:17.077Z,21.30
2019-05-29T07:00:34.110Z,21.30
2019-05-29T07:01:17.373Z,21.10
2019-05-29T07:02:17.046Z,19.40
2019-05-29T07:03:17.037Z,20.60
2019-05-29T07:04:17.351Z,21.40
2019-05-29T07:05:17.009Z,20.30
2019-05-29T07:06:17.058Z,20.80
2019-05-29T07:07:17.272Z,20.70
2019-05-29T07:08:24.220Z,19.20
2019-05-29T07:09:16.966Z,19.10
2019-05-29T07:10:17.238Z,19.70
2019-05-29T07:11:16.949Z,19.10
2019-05-29T07:12:16.945Z,17.50
2019-05-29T07:13:17.336Z,18.90
2019-05-29T07:14:16.915Z,18.40
2019-05-29T07:15:16.915Z,19.70
2019-05-29T07:16:16.904Z,19.70
2019-05-29T07:17:16.878Z,19.40
2019-05-29T07:18:16.873Z,17.20
2019-05-29T07:19:34.159Z,16.20
2019-05-29T07:20:17.848Z,16.30
2019-05-29T07:21:16.885Z,14.60
2019-05-29T07:22:16.832Z,14.20
2019-05-29T07:23:16.817Z,14.50
2019-05-29T07:24:16.806Z,14.10
2019-05-29T07:25:17.089Z,14.90
2019-05-29T07:26:16.798Z,15.90
2019-05-29T07:27:16.815Z,15.60
2019-05-29T07:28:17.094Z,15.30
2019-05-29T07:30:32.207Z,15.30
2019-05-29T07:31:32.157Z,14.70
2019-05-29T07:32:31.890Z,15.60
2019-05-29T07:33:31.859Z,16.50
2019-05-29T07:34:47.451Z,16.50
2019-05-29T07:35:31.842Z,15.70
2019-05-29T07:36:31.832Z,15.40
2019-05-29T07:37:32.176Z,16.90
2019-05-29T07:38:31.813Z,16.90
2019-05-29T07:39:31.795Z,15.80
2019-05-29T07:40:35.754Z,16.00
2019-05-29T07:41:31.776Z,14.50
2019-05-29T07:42:31.758Z,14.80
2019-05-29T07:43:32.051Z,13.00
2019-05-29T07:44:31.750Z,15.00
2019-05-29T07:45:31.739Z,14.00
2019-05-29T07:47:31.712Z,13.80
2019-05-29T07:48:31.713Z,13.20
2019-05-29T07:49:38.918Z,15.00
2019-05-29T07:50:31.677Z,13.10
2019-05-29T07:51:31.671Z,14.80
2019-05-29T07:52:31.982Z,14.70
2019-05-29T07:53:33.690Z,15.10
2019-05-29T07:54:31.633Z,14.50
2019-05-29T07:55:31.893Z,12.40
2019-05-29T07:56:31.613Z,12.90
2019-05-29T07:57:31.603Z,13.10
2019-05-29T07:58:31.874Z,12.90
2019-05-29T07:59:31.592Z,12.30
2019-05-29T08:01:31.806Z,11.70
2019-05-29T08:02:31.547Z,12.00
2019-05-29T08:03:31.619Z,12.00
2019-05-29T08:04:31.549Z,12.70
2019-05-29T08:05:31.517Z,12.80
2019-05-29T08:06:31.790Z,11.70
2019-05-29T08:07:31.503Z,13.70
2019-05-29T08:08:31.493Z,13.00
2019-05-29T08:09:31.831Z,12.70
2019-05-29T08:10:31.472Z,14.50
2019-05-29T08:11:31.448Z,15.50
2019-05-29T08:12:32.199Z,15.30
2019-05-29T08:13:31.429Z,14.50
2019-05-29T08:14:31.721Z,14.00
2019-05-29T08:15:31.418Z,12.50
2019-05-29T08:16:31.402Z,12.50
2019-05-29T08:17:31.749Z,13.50
2019-05-29T08:18:31.379Z,12.80
2019-05-29T08:19:31.368Z,14.00
2019-05-29T08:20:31.704Z,12.80
2019-05-29T08:21:31.343Z,13.80
2019-05-29T08:22:34.457Z,14.00
2019-05-29T08:23:31.318Z,15.10
2019-05-29T08:24:31.312Z,14.00
2019-05-29T08:25:31.657Z,14.40
2019-05-29T08:26:31.352Z,15.70
2019-05-29T08:27:31.291Z,14.20
2019-05-29T08:28:31.585Z,14.90
2019-05-29T08:29:31.261Z,13.90
2019-05-29T08:30:31.291Z,13.90
2019-05-29T08:32:31.225Z,14.00
2019-05-29T08:33:31.484Z,13.10
2019-05-29T08:34:31.522Z,13.80
2019-05-29T08:35:31.197Z,14.30
2019-05-29T08:36:31.221Z,15.00
2019-05-29T08:37:31.500Z,15.30
2019-05-29T08:38:31.174Z,17.90
2019-05-29T08:39:36.523Z,16.30
2019-05-29T08:40:31.422Z,15.90
2019-05-29T08:41:31.132Z,15.10
2019-05-29T08:42:31.124Z,15.60
2019-05-29T08:43:31.391Z,17.50
2019-05-29T08:44:31.091Z,17.20
2019-05-29T08:45:31.076Z,16.80
2019-05-29T08:46:33.408Z,16.40
2019-05-29T08:47:31.077Z,19.00
2019-05-29T08:48:31.050Z,15.40
2019-05-29T08:49:31.330Z,17.00
2019-05-29T08:50:31.032Z,16.60
2019-05-29T08:51:31.029Z,16.40
2019-05-29T08:52:31.356Z,16.70
2019-05-29T08:53:31.007Z,18.30
2019-05-29T08:54:30.987Z,16.40
2019-05-29T08:55:31.284Z,16.70
2019-05-29T08:56:30.979Z,17.80
2019-05-29T08:57:30.961Z,17.10
2019-05-29T08:58:31.269Z,16.00
2019-05-29T08:59:30.932Z,16.80
2019-05-29T09:00:30.918Z,16.00
2019-05-29T09:01:31.091Z,17.10
2019-05-29T09:05:45.209Z,18.40
2019-05-29T10:00:00.264Z,19.00
2019-05-29T10:05:06.022Z,18.30
2019-05-29T10:31:03.130Z,19.80
2019-05-29T10:36:11.203Z,20.10
2019-05-29T10:53:59.247Z,19.10
2019-05-29T11:01:58.056Z,17.40
2019-05-29T11:07:10.770Z,18.00
2019-05-29T11:23:58.197Z,19.70
2019-05-29T11:25:58.216Z,21.30
2019-05-29T11:26:58.982Z,20.20
2019-05-29T11:27:58.662Z,19.40
2019-05-29T11:28:58.798Z,18.30
2019-05-29T11:29:59.133Z,19.90
2019-05-29T11:30:59.318Z,18.70
2019-05-29T11:31:58.897Z,20.10
2019-05-29T11:33:01.012Z,20.70
2019-05-29T11:33:59.093Z,20.10
2019-05-29T11:34:58.028Z,17.70
2019-05-29T11:36:09.403Z,19.10
2019-05-29T11:36:58.356Z,17.40
2019-05-29T11:38:11.393Z,18.50
2019-05-29T11:39:02.985Z,19.70
2019-05-29T11:39:59.006Z,20.80
2019-05-29T11:42:59.040Z,20.30
2019-05-29T11:44:59.427Z,19.70
2019-05-29T11:45:57.899Z,20.30
2019-05-29T11:46:58.233Z,21.00
2019-05-29T11:47:59.560Z,20.80
2019-05-29T11:48:57.545Z,21.60
2019-05-29T11:50:07.496Z,20.60
2019-05-29T11:50:58.874Z,21.80
2019-05-29T11:52:18.678Z,21.50
2019-05-29T11:52:58.534Z,20.70
2019-05-29T11:53:57.614Z,20.30
2019-05-29T11:55:57.825Z,20.90
2019-05-29T11:56:59.026Z,22.90
2019-05-29T11:57:57.914Z,22.80
2019-05-29T11:58:57.449Z,18.80
2019-05-29T12:00:00.179Z,19.60
2019-05-29T12:00:57.430Z,16.00
2019-05-29T12:01:59.301Z,21.20
2019-05-29T12:02:57.863Z,20.30
2019-05-29T12:04:21.939Z,20.60
2019-05-29T12:05:02.680Z,20.40
2019-05-29T12:05:57.700Z,19.00
2019-05-29T12:06:57.611Z,20.40
2019-05-29T12:07:57.599Z,19.40
2019-05-29T12:09:09.313Z,19.70
2019-05-29T12:09:57.610Z,20.50
2019-05-29T12:10:57.447Z,20.70
2019-05-29T12:12:57.605Z,20.70
2019-05-29T12:13:58.009Z,22.50
2019-05-29T12:15:06.209Z,21.70
2019-05-29T12:15:57.743Z,22.30
2019-05-29T12:16:58.218Z,21.10
2019-05-29T12:18:18.889Z,20.30
2019-05-29T12:18:58.229Z,22.30
2019-05-29T12:19:59.872Z,31.10
2019-05-29T12:20:58.490Z,32.80
2019-05-29T12:21:58.358Z,31.50
2019-05-29T12:23:18.591Z,31.00
2019-05-29T12:23:58.201Z,30.80
2019-05-29T12:24:58.507Z,30.00
2019-05-29T12:26:58.441Z,31.50
2019-05-29T12:27:57.430Z,32.50
2019-05-29T12:29:04.549Z,32.00
2019-05-29T12:29:58.766Z,31.70
2019-05-29T12:30:57.100Z,33.30
2019-05-29T12:31:57.396Z,32.10
2019-05-29T12:32:57.078Z,31.50
2019-05-29T12:34:00.077Z,32.70
2019-05-29T12:34:58.230Z,34.30
2019-05-29T12:35:57.061Z,31.90
2019-05-29T12:36:57.387Z,32.40
2019-05-29T12:37:57.715Z,32.80
2019-05-29T12:38:57.805Z,32.70
2019-05-29T12:40:08.419Z,33.20
2019-05-29T12:40:57.643Z,33.20
2019-05-29T12:41:57.576Z,32.90
2019-05-29T12:43:57.507Z,33.90
2019-05-29T12:44:57.567Z,34.10
2019-05-29T12:45:57.746Z,34.20
2019-05-29T12:46:57.721Z,33.20
2019-05-29T12:47:58.166Z,34.30
2019-05-29T12:48:57.590Z,35.00
2019-05-29T12:49:57.670Z,33.80
2019-05-29T12:50:58.271Z,32.40
2019-05-29T12:51:57.616Z,33.80
2019-05-29T12:52:57.682Z,34.00
2019-05-29T12:53:58.016Z,34.90
2019-05-29T12:54:58.008Z,35.50
2019-05-29T12:55:58.337Z,35.90
2019-05-29T12:57:58.034Z,34.50
2019-05-29T12:58:58.320Z,35.10
2019-05-29T12:59:57.909Z,34.60
2019-05-29T13:00:58.366Z,35.50
2019-05-29T13:01:58.331Z,33.40
2019-05-29T13:02:56.753Z,32.70
2019-05-29T13:03:58.519Z,33.00
2019-05-29T13:05:56.726Z,33.60
2019-05-29T13:06:56.713Z,32.70
2019-05-29T13:07:58.676Z,33.10
2019-05-29T13:08:56.692Z,32.50
2019-05-29T13:09:56.844Z,32.60
2019-05-29T13:11:08.650Z,33.20
2019-05-29T13:11:58.384Z,34.60
2019-05-29T13:13:02.459Z,34.50
2019-05-29T13:14:56.893Z,35.40
2019-05-29T13:15:56.755Z,34.90
2019-05-29T13:16:56.757Z,34.10
2019-05-29T13:18:02.737Z,33.00
2019-05-29T13:18:56.988Z,32.50
2019-05-29T13:19:59.548Z,31.90
2019-05-29T13:20:58.824Z,31.90
2019-05-29T13:21:57.298Z,32.50
2019-05-29T13:22:57.699Z,32.00
2019-05-29T13:23:59.788Z,32.70
2019-05-29T13:24:57.359Z,34.50
2019-05-29T13:25:57.304Z,33.80
2019-05-29T13:26:57.566Z,33.70
2019-05-29T13:28:57.526Z,34.00
2019-05-29T13:29:59.882Z,34.70
2019-05-29T13:30:57.638Z,33.10
2019-05-29T13:31:58.048Z,34.00
2019-05-29T13:33:02.204Z,33.70
2019-05-29T13:33:57.778Z,34.40
2019-05-29T13:34:57.816Z,33.90
2019-05-29T13:37:02.806Z,35.10
2019-05-29T13:37:58.801Z,35.70
2019-05-29T13:38:56.369Z,35.10
2019-05-29T13:39:56.359Z,34.40
2019-05-29T13:40:56.639Z,34.00
2019-05-29T13:42:11.761Z,34.20
2019-05-29T13:42:56.609Z,34.10
2019-05-29T13:43:56.637Z,35.40
2019-05-29T13:45:56.330Z,35.10
2019-05-29T13:46:57.714Z,35.30
2019-05-29T13:47:56.815Z,35.40
2019-05-29T13:48:56.745Z,35.00
2019-05-29T13:49:57.001Z,34.50
2019-05-29T13:50:56.985Z,34.90
2019-05-29T13:51:57.164Z,34.90
2019-05-29T13:52:57.135Z,34.70
2019-05-29T13:54:04.753Z,35.00
2019-05-29T13:54:57.237Z,35.20
2019-05-29T13:55:57.619Z,34.70
2019-05-29T13:56:58.971Z,34.40
2019-05-29T13:57:57.502Z,34.70
2019-05-29T13:59:56.141Z,34.60
2019-05-29T14:00:56.138Z,34.70
2019-05-29T14:01:56.128Z,34.80
2019-05-29T14:02:56.123Z,35.70
2019-05-29T14:03:56.391Z,34.70
2019-05-29T14:04:56.093Z,34.50
2019-05-29T14:05:56.077Z,33.90
2019-05-29T14:07:56.099Z,33.10
2019-05-29T14:08:56.047Z,34.00
2019-05-29T14:09:56.323Z,33.30
2019-05-29T14:10:56.024Z,32.50
2019-05-29T14:11:56.019Z,32.30
2019-05-29T14:13:09.344Z,32.80
2019-05-29T14:13:56.448Z,33.30
2019-05-29T14:14:55.979Z,33.60
2019-05-29T14:16:56.062Z,33.20
2019-05-29T14:17:55.950Z,34.30
2019-05-29T14:18:56.355Z,33.90
2019-05-29T14:19:55.932Z,34.50
2019-05-29T14:20:55.921Z,34.20
2019-05-29T14:21:56.222Z,35.60
2019-05-29T14:22:55.900Z,37.20
2019-05-29T14:23:55.895Z,36.10
2019-05-29T14:24:56.191Z,36.00
2019-05-29T14:25:55.868Z,36.00
2019-05-29T14:26:55.853Z,35.00
2019-05-29T14:27:55.849Z,33.50
2019-05-29T14:28:56.175Z,34.60
2019-05-29T14:30:55.814Z,33.70
2019-05-29T14:31:56.077Z,33.50
2019-05-29T14:32:55.797Z,34.40
2019-05-29T14:33:55.779Z,34.50
2019-05-29T14:34:56.081Z,34.80
2019-05-29T14:35:55.783Z,34.20
2019-05-29T14:36:55.753Z,34.70
2019-05-29T14:37:56.042Z,34.70
2019-05-29T14:38:55.732Z,35.10
2019-05-29T14:39:55.721Z,35.00
2019-05-29T14:40:55.997Z,35.10
2019-05-29T14:41:55.702Z,35.20
2019-05-29T14:42:55.684Z,35.60
2019-05-29T14:44:07.901Z,36.20
2019-05-29T14:44:56.065Z,36.30
2019-05-29T14:45:55.697Z,36.10
2019-05-29T14:46:55.637Z,34.10
2019-05-29T14:47:55.968Z,34.50
2019-05-29T14:48:55.619Z,34.30
2019-05-29T14:49:55.611Z,33.60
2019-05-29T14:50:55.881Z,34.50
2019-05-29T14:51:55.600Z,34.10
2019-05-29T14:52:55.581Z,35.10
2019-05-29T14:53:55.842Z,34.20
2019-05-29T14:54:55.562Z,33.70
2019-05-29T14:55:55.590Z,33.80
2019-05-29T14:56:55.778Z,33.70
2019-05-29T14:57:55.521Z,34.10
2019-05-29T14:58:55.512Z,33.70
2019-05-29T14:59:55.517Z,33.60
2019-05-29T15:00:55.492Z,33.60
2019-05-29T15:01:55.750Z,31.90
2019-05-29T15:02:55.474Z,32.00
2019-05-29T15:03:55.456Z,32.20
2019-05-29T15:04:55.808Z,31.90
2019-05-29T15:05:55.449Z,31.90
2019-05-29T15:06:55.442Z,32.30
2019-05-29T15:07:55.737Z,33.30
2019-05-29T15:08:55.404Z,26.90
2019-05-29T15:09:55.396Z,32.20
2019-05-29T15:10:55.734Z,33.20
2019-05-29T15:11:55.371Z,32.80
2019-05-29T15:12:58.052Z,32.70
2019-05-29T15:13:55.663Z,33.10
2019-05-29T15:16:10.900Z,33.80
2019-05-29T15:17:11.002Z,34.00
2019-05-29T15:18:13.692Z,34.10
2019-05-29T15:19:11.009Z,33.80
2019-05-29T15:20:11.997Z,34.10
2019-05-29T15:21:10.955Z,33.10
2019-05-29T15:22:11.413Z,33.10
2019-05-29T15:23:11.413Z,34.20
2019-05-29T15:24:09.840Z,33.30
2019-05-29T15:25:18.522Z,32.80
2019-05-29T15:26:11.699Z,33.50
2019-05-29T15:27:09.898Z,33.80
2019-05-29T15:28:13.618Z,33.50
2019-05-29T15:29:14.394Z,33.60
2019-05-29T15:30:11.245Z,33.30
2019-05-29T15:31:10.419Z,33.50
2019-05-29T15:32:10.336Z,34.20
2019-05-29T15:33:10.875Z,34.20
2019-05-29T15:34:10.300Z,33.20
2019-05-29T15:35:13.895Z,33.30
2019-05-29T15:36:10.710Z,33.70